sensor_id;sensor_type;location;lat;lon;timestamp;P1;durP1;ratioP1;P2;durP2;ratioP2
76433;SDS011;65265;53.200;6.080;2024-03-02T00:00:15;1.88;;;1.35;;
76433;SDS011;65265;53.200;6.080;2024-03-02T00:05:10;2.55;;;0.93;;
76433;SDS011;65265;53.200;6.080;2024-03-02T00:10:04;1.48;;;0.70;;
76433;SDS011;65265;53.200;6.080;2024-03-02T00:15:00;1.90;;;0.65;;
76433;SDS011;65265;53.200;6.080;2024-03-02T00:19:54;3.58;;;1.52;;
76433;SDS011;65265;53.200;6.080;2024-03-02T00:29:37;2.90;;;0.95;;
76433;SDS011;65265;53.200;6.080;2024-03-02T00:34:29;2.45;;;0.73;;
76433;SDS011;65265;53.200;6.080;2024-03-02T00:39:22;1.98;;;0.85;;
76433;SDS011;65265;53.200;6.080;2024-03-02T00:44:13;3.00;;;0.90;;
76433;SDS011;65265;53.200;6.080;2024-03-02T00:49:11;3.75;;;1.10;;
76433;SDS011;65265;53.200;6.080;2024-03-02T00:54:07;1.83;;;1.63;;
76433;SDS011;65265;53.200;6.080;2024-03-02T00:59:00;1.85;;;0.82;;
76433;SDS011;65265;53.200;6.080;2024-03-02T01:03:52;1.95;;;1.25;;
76433;SDS011;65265;53.200;6.080;2024-03-02T01:08:44;2.67;;;1.60;;
76433;SDS011;65265;53.200;6.080;2024-03-02T01:13:37;2.15;;;0.93;;
76433;SDS011;65265;53.200;6.080;2024-03-02T01:18:29;2.38;;;1.00;;
76433;SDS011;65265;53.200;6.080;2024-03-02T01:23:21;1.80;;;0.95;;
76433;SDS011;65265;53.200;6.080;2024-03-02T01:28:13;2.10;;;1.00;;
76433;SDS011;65265;53.200;6.080;2024-03-02T01:33:05;1.88;;;0.52;;
76433;SDS011;65265;53.200;6.080;2024-03-02T01:37:59;1.42;;;0.65;;
76433;SDS011;65265;53.200;6.080;2024-03-02T01:42:50;2.40;;;0.98;;
76433;SDS011;65265;53.200;6.080;2024-03-02T01:47:41;2.60;;;0.90;;
76433;SDS011;65265;53.200;6.080;2024-03-02T01:52:33;2.25;;;0.77;;
76433;SDS011;65265;53.200;6.080;2024-03-02T01:57:26;2.47;;;0.88;;
76433;SDS011;65265;53.200;6.080;2024-03-02T02:02:17;2.65;;;1.13;;
76433;SDS011;65265;53.200;6.080;2024-03-02T02:07:10;3.28;;;0.50;;
76433;SDS011;65265;53.200;6.080;2024-03-02T02:12:01;1.98;;;0.60;;
76433;SDS011;65265;53.200;6.080;2024-03-02T02:16:57;2.55;;;0.95;;
76433;SDS011;65265;53.200;6.080;2024-03-02T02:21:51;3.30;;;0.50;;
76433;SDS011;65265;53.200;6.080;2024-03-02T02:26:42;4.65;;;0.60;;
76433;SDS011;65265;53.200;6.080;2024-03-02T02:31:37;2.30;;;1.02;;
76433;SDS011;65265;53.200;6.080;2024-03-02T02:36:29;2.03;;;0.60;;
76433;SDS011;65265;53.200;6.080;2024-03-02T02:41:22;1.83;;;0.75;;
76433;SDS011;65265;53.200;6.080;2024-03-02T02:46:13;2.28;;;0.70;;
76433;SDS011;65265;53.200;6.080;2024-03-02T02:51:05;3.88;;;1.00;;
76433;SDS011;65265;53.200;6.080;2024-03-02T02:55:56;2.22;;;0.38;;
76433;SDS011;65265;53.200;6.080;2024-03-02T03:00:49;1.83;;;0.93;;
76433;SDS011;65265;53.200;6.080;2024-03-02T03:05:41;1.38;;;0.70;;
76433;SDS011;65265;53.200;6.080;2024-03-02T03:10:32;2.17;;;0.47;;
76433;SDS011;65265;53.200;6.080;2024-03-02T03:15:24;2.58;;;1.02;;
76433;SDS011;65265;53.200;6.080;2024-03-02T03:20:17;2.40;;;0.75;;
76433;SDS011;65265;53.200;6.080;2024-03-02T03:25:08;1.73;;;0.95;;
76433;SDS011;65265;53.200;6.080;2024-03-02T03:30:00;2.22;;;1.15;;
76433;SDS011;65265;53.200;6.080;2024-03-02T03:34:51;2.00;;;1.15;;
76433;SDS011;65265;53.200;6.080;2024-03-02T03:39:44;1.92;;;0.75;;
76433;SDS011;65265;53.200;6.080;2024-03-02T03:44:36;2.72;;;1.08;;
76433;SDS011;65265;53.200;6.080;2024-03-02T03:49:29;1.60;;;0.63;;
76433;SDS011;65265;53.200;6.080;2024-03-02T03:54:20;1.58;;;0.93;;
76433;SDS011;65265;53.200;6.080;2024-03-02T03:59:13;1.92;;;1.30;;
76433;SDS011;65265;53.200;6.080;2024-03-02T04:04:05;4.75;;;1.30;;
76433;SDS011;65265;53.200;6.080;2024-03-02T04:08:57;1.65;;;0.55;;
76433;SDS011;65265;53.200;6.080;2024-03-02T04:13:48;1.88;;;0.80;;
76433;SDS011;65265;53.200;6.080;2024-03-02T04:18:41;3.80;;;0.70;;
76433;SDS011;65265;53.200;6.080;2024-03-02T04:23:32;1.33;;;0.80;;
76433;SDS011;65265;53.200;6.080;2024-03-02T04:28:24;1.85;;;1.00;;
76433;SDS011;65265;53.200;6.080;2024-03-02T04:33:15;1.35;;;0.93;;
76433;SDS011;65265;53.200;6.080;2024-03-02T04:38:08;3.22;;;0.60;;
76433;SDS011;65265;53.200;6.080;2024-03-02T04:43:00;1.88;;;0.80;;
76433;SDS011;65265;53.200;6.080;2024-03-02T04:47:51;1.98;;;0.80;;
76433;SDS011;65265;53.200;6.080;2024-03-02T04:52:43;2.28;;;1.02;;
76433;SDS011;65265;53.200;6.080;2024-03-02T04:57:36;2.78;;;0.63;;
76433;SDS011;65265;53.200;6.080;2024-03-02T05:02:27;1.77;;;0.22;;
76433;SDS011;65265;53.200;6.080;2024-03-02T05:07:18;0.82;;;0.43;;
76433;SDS011;65265;53.200;6.080;2024-03-02T05:12:10;0.30;;;0.22;;
76433;SDS011;65265;53.200;6.080;2024-03-02T05:17:20;0.47;;;0.38;;
76433;SDS011;65265;53.200;6.080;2024-03-02T05:22:12;1.02;;;0.15;;
76433;SDS011;65265;53.200;6.080;2024-03-02T05:27:03;0.75;;;0.30;;
76433;SDS011;65265;53.200;6.080;2024-03-02T05:31:56;0.22;;;0.22;;
76433;SDS011;65265;53.200;6.080;2024-03-02T05:36:49;0.25;;;0.25;;
76433;SDS011;65265;53.200;6.080;2024-03-02T05:41:41;0.20;;;0.13;;
76433;SDS011;65265;53.200;6.080;2024-03-02T05:46:32;1.05;;;0.30;;
76433;SDS011;65265;53.200;6.080;2024-03-02T05:51:24;0.25;;;0.15;;
76433;SDS011;65265;53.200;6.080;2024-03-02T05:56:17;1.00;;;0.70;;
76433;SDS011;65265;53.200;6.080;2024-03-02T06:01:08;2.00;;;0.03;;
76433;SDS011;65265;53.200;6.080;2024-03-02T06:06:00;0.60;;;0.60;;
76433;SDS011;65265;53.200;6.080;2024-03-02T06:10:51;0.45;;;0.43;;
76433;SDS011;65265;53.200;6.080;2024-03-02T06:15:44;0.40;;;0.20;;
76433;SDS011;65265;53.200;6.080;2024-03-02T06:20:35;0.20;;;0.00;;
76433;SDS011;65265;53.200;6.080;2024-03-02T06:25:27;0.68;;;0.28;;
76433;SDS011;65265;53.200;6.080;2024-03-02T06:30:18;0.38;;;0.15;;
76433;SDS011;65265;53.200;6.080;2024-03-02T06:35:11;0.55;;;0.28;;
76433;SDS011;65265;53.200;6.080;2024-03-02T06:40:03;0.55;;;0.55;;
76433;SDS011;65265;53.200;6.080;2024-03-02T06:44:57;0.60;;;0.47;;
76433;SDS011;65265;53.200;6.080;2024-03-02T06:49:49;0.68;;;0.30;;
76433;SDS011;65265;53.200;6.080;2024-03-02T06:54:42;0.90;;;0.43;;
76433;SDS011;65265;53.200;6.080;2024-03-02T06:59:33;0.22;;;0.13;;
76433;SDS011;65265;53.200;6.080;2024-03-02T07:04:25;0.47;;;0.47;;
76433;SDS011;65265;53.200;6.080;2024-03-02T07:09:16;0.85;;;0.32;;
76433;SDS011;65265;53.200;6.080;2024-03-02T07:14:09;1.08;;;0.05;;
76433;SDS011;65265;53.200;6.080;2024-03-02T07:19:01;0.32;;;0.17;;
76433;SDS011;65265;53.200;6.080;2024-03-02T07:23:53;1.08;;;0.65;;
76433;SDS011;65265;53.200;6.080;2024-03-02T07:28:44;1.10;;;0.30;;
76433;SDS011;65265;53.200;6.080;2024-03-02T07:33:39;0.38;;;0.17;;
76433;SDS011;65265;53.200;6.080;2024-03-02T07:38:30;0.77;;;0.57;;
76433;SDS011;65265;53.200;6.080;2024-03-02T07:43:23;0.30;;;0.10;;
76433;SDS011;65265;53.200;6.080;2024-03-02T07:48:15;0.80;;;0.38;;
76433;SDS011;65265;53.200;6.080;2024-03-02T07:53:08;0.95;;;0.13;;
76433;SDS011;65265;53.200;6.080;2024-03-02T07:58:01;1.60;;;0.65;;
76433;SDS011;65265;53.200;6.080;2024-03-02T08:02:53;2.28;;;0.65;;
76433;SDS011;65265;53.200;6.080;2024-03-02T08:07:45;0.57;;;0.45;;
76433;SDS011;65265;53.200;6.080;2024-03-02T08:12:38;1.10;;;0.65;;
76433;SDS011;65265;53.200;6.080;2024-03-02T08:17:30;0.43;;;0.35;;
76433;SDS011;65265;53.200;6.080;2024-03-02T08:22:21;3.63;;;1.67;;
76433;SDS011;65265;53.200;6.080;2024-03-02T08:27:15;0.60;;;0.35;;
76433;SDS011;65265;53.200;6.080;2024-03-02T08:32:08;0.55;;;0.50;;
76433;SDS011;65265;53.200;6.080;2024-03-02T08:36:59;0.32;;;0.17;;
76433;SDS011;65265;53.200;6.080;2024-03-02T08:41:51;2.05;;;0.38;;
76433;SDS011;65265;53.200;6.080;2024-03-02T08:46:43;4.13;;;1.13;;
76433;SDS011;65265;53.200;6.080;2024-03-02T08:51:36;1.17;;;0.43;;
76433;SDS011;65265;53.200;6.080;2024-03-02T08:56:27;1.42;;;0.08;;
76433;SDS011;65265;53.200;6.080;2024-03-02T09:01:19;3.03;;;0.93;;
76433;SDS011;65265;53.200;6.080;2024-03-02T09:06:11;2.67;;;0.52;;
76433;SDS011;65265;53.200;6.080;2024-03-02T09:11:05;1.45;;;0.63;;
76433;SDS011;65265;53.200;6.080;2024-03-02T09:15:58;1.63;;;0.45;;
76433;SDS011;65265;53.200;6.080;2024-03-02T09:20:49;2.85;;;0.20;;
76433;SDS011;65265;53.200;6.080;2024-03-02T09:25:41;1.77;;;0.30;;
76433;SDS011;65265;53.200;6.080;2024-03-02T09:30:33;0.50;;;0.10;;
76433;SDS011;65265;53.200;6.080;2024-03-02T09:35:25;1.10;;;0.22;;
76433;SDS011;65265;53.200;6.080;2024-03-02T09:40:16;1.58;;;0.00;;
76433;SDS011;65265;53.200;6.080;2024-03-02T09:45:08;1.73;;;0.15;;
76433;SDS011;65265;53.200;6.080;2024-03-02T09:50:01;2.47;;;0.13;;
76433;SDS011;65265;53.200;6.080;2024-03-02T09:54:53;1.60;;;0.20;;
76433;SDS011;65265;53.200;6.080;2024-03-02T09:59:45;0.80;;;0.45;;
76433;SDS011;65265;53.200;6.080;2024-03-02T10:04:36;1.80;;;0.55;;
76433;SDS011;65265;53.200;6.080;2024-03-02T10:09:30;1.95;;;0.10;;
76433;SDS011;65265;53.200;6.080;2024-03-02T10:14:21;0.85;;;0.10;;
76433;SDS011;65265;53.200;6.080;2024-03-02T10:19:16;1.00;;;0.17;;
76433;SDS011;65265;53.200;6.080;2024-03-02T10:24:09;1.30;;;0.50;;
76433;SDS011;65265;53.200;6.080;2024-03-02T10:29:02;0.50;;;0.20;;
76433;SDS011;65265;53.200;6.080;2024-03-02T10:33:53;1.30;;;0.30;;
76433;SDS011;65265;53.200;6.080;2024-03-02T10:38:45;1.70;;;0.05;;
76433;SDS011;65265;53.200;6.080;2024-03-02T10:43:38;1.33;;;0.20;;
76433;SDS011;65265;53.200;6.080;2024-03-02T10:48:32;1.45;;;0.10;;
76433;SDS011;65265;53.200;6.080;2024-03-02T10:53:26;1.02;;;0.15;;
76433;SDS011;65265;53.200;6.080;2024-03-02T10:58:18;0.60;;;0.43;;
76433;SDS011;65265;53.200;6.080;2024-03-02T11:03:10;0.30;;;0.00;;
76433;SDS011;65265;53.200;6.080;2024-03-02T11:08:06;1.13;;;0.15;;
76433;SDS011;65265;53.200;6.080;2024-03-02T11:12:59;0.60;;;0.20;;
76433;SDS011;65265;53.200;6.080;2024-03-02T11:17:53;2.35;;;0.43;;
76433;SDS011;65265;53.200;6.080;2024-03-02T11:22:45;0.85;;;0.10;;
76433;SDS011;65265;53.200;6.080;2024-03-02T11:32:54;1.20;;;0.20;;
76433;SDS011;65265;53.200;6.080;2024-03-02T11:37:46;1.73;;;0.03;;
76433;SDS011;65265;53.200;6.080;2024-03-02T11:42:38;0.70;;;0.00;;
76433;SDS011;65265;53.200;6.080;2024-03-02T11:47:32;2.38;;;0.47;;
76433;SDS011;65265;53.200;6.080;2024-03-02T11:52:24;1.65;;;0.05;;
76433;SDS011;65265;53.200;6.080;2024-03-02T11:57:18;1.42;;;0.20;;
76433;SDS011;65265;53.200;6.080;2024-03-02T12:02:14;4.35;;;0.10;;
76433;SDS011;65265;53.200;6.080;2024-03-02T12:07:08;4.90;;;0.10;;
76433;SDS011;65265;53.200;6.080;2024-03-02T12:12:03;1.98;;;0.10;;
76433;SDS011;65265;53.200;6.080;2024-03-02T12:16:56;0.70;;;0.35;;
76433;SDS011;65265;53.200;6.080;2024-03-02T12:21:48;1.77;;;0.00;;
76433;SDS011;65265;53.200;6.080;2024-03-02T12:26:42;1.92;;;0.73;;
76433;SDS011;65265;53.200;6.080;2024-03-02T12:31:33;0.85;;;0.00;;
76433;SDS011;65265;53.200;6.080;2024-03-02T12:36:25;0.52;;;0.00;;
76433;SDS011;65265;53.200;6.080;2024-03-02T12:41:17;1.08;;;0.20;;
76433;SDS011;65265;53.200;6.080;2024-03-02T12:46:10;1.92;;;0.22;;
76433;SDS011;65265;53.200;6.080;2024-03-02T12:55:53;1.48;;;0.10;;
76433;SDS011;65265;53.200;6.080;2024-03-02T13:00:45;1.30;;;0.00;;
76433;SDS011;65265;53.200;6.080;2024-03-02T13:05:38;1.35;;;0.10;;
76433;SDS011;65265;53.200;6.080;2024-03-02T13:15:21;0.60;;;0.32;;
76433;SDS011;65265;53.200;6.080;2024-03-02T13:20:13;2.45;;;0.03;;
76433;SDS011;65265;53.200;6.080;2024-03-02T13:25:09;0.93;;;0.00;;
76433;SDS011;65265;53.200;6.080;2024-03-02T13:34:52;4.28;;;0.10;;
76433;SDS011;65265;53.200;6.080;2024-03-02T13:39:44;1.60;;;0.00;;
76433;SDS011;65265;53.200;6.080;2024-03-02T13:44:37;1.17;;;0.15;;
76433;SDS011;65265;53.200;6.080;2024-03-02T13:49:29;2.42;;;0.30;;
76433;SDS011;65265;53.200;6.080;2024-03-02T13:54:25;1.10;;;0.00;;
76433;SDS011;65265;53.200;6.080;2024-03-02T13:59:17;1.58;;;0.10;;
76433;SDS011;65265;53.200;6.080;2024-03-02T14:04:10;0.40;;;0.13;;
76433;SDS011;65265;53.200;6.080;2024-03-02T14:09:02;0.43;;;0.05;;
76433;SDS011;65265;53.200;6.080;2024-03-02T14:13:54;3.17;;;0.22;;
76433;SDS011;65265;53.200;6.080;2024-03-02T14:18:47;1.67;;;0.20;;
76433;SDS011;65265;53.200;6.080;2024-03-02T14:23:40;2.22;;;0.10;;
76433;SDS011;65265;53.200;6.080;2024-03-02T14:28:32;2.53;;;0.30;;
76433;SDS011;65265;53.200;6.080;2024-03-02T14:33:23;0.90;;;0.20;;
76433;SDS011;65265;53.200;6.080;2024-03-02T14:38:15;0.85;;;0.38;;
76433;SDS011;65265;53.200;6.080;2024-03-02T14:43:08;2.35;;;0.32;;
76433;SDS011;65265;53.200;6.080;2024-03-02T14:47:59;1.25;;;0.20;;
76433;SDS011;65265;53.200;6.080;2024-03-02T14:52:51;2.35;;;0.28;;
76433;SDS011;65265;53.200;6.080;2024-03-02T14:57:42;3.17;;;0.40;;
76433;SDS011;65265;53.200;6.080;2024-03-02T15:02:36;2.05;;;0.30;;
76433;SDS011;65265;53.200;6.080;2024-03-02T15:07:28;3.03;;;0.50;;
76433;SDS011;65265;53.200;6.080;2024-03-02T15:12:19;5.78;;;2.25;;
76433;SDS011;65265;53.200;6.080;2024-03-02T15:17:11;2.88;;;1.00;;
76433;SDS011;65265;53.200;6.080;2024-03-02T15:22:06;4.25;;;1.60;;
76433;SDS011;65265;53.200;6.080;2024-03-02T15:31:49;2.75;;;1.77;;
76433;SDS011;65265;53.200;6.080;2024-03-02T15:36:41;2.55;;;1.13;;
76433;SDS011;65265;53.200;6.080;2024-03-02T15:41:35;3.17;;;1.30;;
76433;SDS011;65265;53.200;6.080;2024-03-02T15:56:10;1.15;;;0.65;;
76433;SDS011;65265;53.200;6.080;2024-03-02T16:01:04;2.50;;;0.40;;
76433;SDS011;65265;53.200;6.080;2024-03-02T16:05:55;2.63;;;1.00;;
76433;SDS011;65265;53.200;6.080;2024-03-02T16:10:47;1.58;;;0.73;;
76433;SDS011;65265;53.200;6.080;2024-03-02T16:15:38;1.00;;;0.30;;
76433;SDS011;65265;53.200;6.080;2024-03-02T16:20:31;2.33;;;0.63;;
76433;SDS011;65265;53.200;6.080;2024-03-02T16:25:23;2.58;;;0.40;;
76433;SDS011;65265;53.200;6.080;2024-03-02T16:30:15;1.60;;;0.40;;
76433;SDS011;65265;53.200;6.080;2024-03-02T16:40:01;2.63;;;0.35;;
76433;SDS011;65265;53.200;6.080;2024-03-02T16:44:53;1.58;;;0.20;;
76433;SDS011;65265;53.200;6.080;2024-03-02T16:49:45;1.35;;;0.30;;
76433;SDS011;65265;53.200;6.080;2024-03-02T16:54:37;1.35;;;0.13;;
76433;SDS011;65265;53.200;6.080;2024-03-02T16:59:29;4.57;;;0.60;;
76433;SDS011;65265;53.200;6.080;2024-03-02T17:09:12;2.92;;;0.70;;
76433;SDS011;65265;53.200;6.080;2024-03-02T17:14:04;4.07;;;0.77;;
76433;SDS011;65265;53.200;6.080;2024-03-02T17:18:59;2.40;;;0.65;;
76433;SDS011;65265;53.200;6.080;2024-03-02T17:23:51;3.10;;;1.00;;
76433;SDS011;65265;53.200;6.080;2024-03-02T17:28:42;2.03;;;1.45;;
76433;SDS011;65265;53.200;6.080;2024-03-02T17:33:35;2.97;;;1.20;;
76433;SDS011;65265;53.200;6.080;2024-03-02T17:38:28;4.30;;;0.80;;
76433;SDS011;65265;53.200;6.080;2024-03-02T17:43:19;3.13;;;1.08;;
76433;SDS011;65265;53.200;6.080;2024-03-02T17:48:11;4.50;;;1.50;;
76433;SDS011;65265;53.200;6.080;2024-03-02T17:53:02;4.38;;;1.88;;
76433;SDS011;65265;53.200;6.080;2024-03-02T17:57:55;7.68;;;2.10;;
76433;SDS011;65265;53.200;6.080;2024-03-02T18:02:47;5.90;;;2.53;;
76433;SDS011;65265;53.200;6.080;2024-03-02T18:07:39;4.80;;;2.78;;
76433;SDS011;65265;53.200;6.080;2024-03-02T18:12:30;4.80;;;2.75;;
76433;SDS011;65265;53.200;6.080;2024-03-02T18:17:23;5.07;;;2.83;;
76433;SDS011;65265;53.200;6.080;2024-03-02T18:22:15;3.38;;;1.73;;
76433;SDS011;65265;53.200;6.080;2024-03-02T18:27:07;3.05;;;1.85;;
76433;SDS011;65265;53.200;6.080;2024-03-02T18:31:58;3.13;;;1.88;;
76433;SDS011;65265;53.200;6.080;2024-03-02T18:36:51;5.88;;;2.85;;
76433;SDS011;65265;53.200;6.080;2024-03-02T18:41:43;2.97;;;1.80;;
76433;SDS011;65265;53.200;6.080;2024-03-02T18:46:34;3.38;;;1.52;;
76433;SDS011;65265;53.200;6.080;2024-03-02T18:51:26;4.72;;;2.00;;
76433;SDS011;65265;53.200;6.080;2024-03-02T18:56:19;4.60;;;2.22;;
76433;SDS011;65265;53.200;6.080;2024-03-02T19:01:10;2.90;;;1.77;;
76433;SDS011;65265;53.200;6.080;2024-03-02T19:06:02;3.88;;;1.77;;
76433;SDS011;65265;53.200;6.080;2024-03-02T19:10:53;4.75;;;1.52;;
76433;SDS011;65265;53.200;6.080;2024-03-02T19:15:46;2.55;;;1.25;;
76433;SDS011;65265;53.200;6.080;2024-03-02T19:20:38;3.05;;;1.60;;
76433;SDS011;65265;53.200;6.080;2024-03-02T19:25:29;3.45;;;1.55;;
76433;SDS011;65265;53.200;6.080;2024-03-02T19:30:21;4.45;;;2.30;;
76433;SDS011;65265;53.200;6.080;2024-03-02T19:35:13;2.95;;;1.50;;
76433;SDS011;65265;53.200;6.080;2024-03-02T19:40:05;3.25;;;1.65;;
76433;SDS011;65265;53.200;6.080;2024-03-02T19:44:58;3.28;;;1.13;;
76433;SDS011;65265;53.200;6.080;2024-03-02T19:49:49;1.98;;;1.00;;
76433;SDS011;65265;53.200;6.080;2024-03-02T19:54:42;2.63;;;1.38;;
76433;SDS011;65265;53.200;6.080;2024-03-02T19:59:34;2.55;;;1.10;;
76433;SDS011;65265;53.200;6.080;2024-03-02T20:04:25;3.45;;;1.90;;
76433;SDS011;65265;53.200;6.080;2024-03-02T20:09:17;2.92;;;1.33;;
76433;SDS011;65265;53.200;6.080;2024-03-02T20:14:10;3.03;;;1.40;;
76433;SDS011;65265;53.200;6.080;2024-03-02T20:19:04;2.80;;;1.40;;
76433;SDS011;65265;53.200;6.080;2024-03-02T20:23:56;3.22;;;1.73;;
76433;SDS011;65265;53.200;6.080;2024-03-02T20:28:49;1.90;;;1.20;;
76433;SDS011;65265;53.200;6.080;2024-03-02T20:33:46;3.22;;;1.92;;
76433;SDS011;65265;53.200;6.080;2024-03-02T20:38:39;3.35;;;1.52;;
76433;SDS011;65265;53.200;6.080;2024-03-02T20:48:27;4.15;;;1.80;;
76433;SDS011;65265;53.200;6.080;2024-03-02T20:53:22;3.03;;;1.55;;
76433;SDS011;65265;53.200;6.080;2024-03-02T20:58:14;4.43;;;1.60;;
76433;SDS011;65265;53.200;6.080;2024-03-02T21:03:07;3.45;;;1.23;;
76433;SDS011;65265;53.200;6.080;2024-03-02T21:08:00;2.13;;;1.27;;
76433;SDS011;65265;53.200;6.080;2024-03-02T21:12:55;2.75;;;1.40;;
76433;SDS011;65265;53.200;6.080;2024-03-02T21:17:49;2.95;;;1.38;;
76433;SDS011;65265;53.200;6.080;2024-03-02T21:22:42;4.57;;;1.75;;
76433;SDS011;65265;53.200;6.080;2024-03-02T21:27:42;5.07;;;1.83;;
76433;SDS011;65265;53.200;6.080;2024-03-02T21:32:39;3.13;;;1.75;;
76433;SDS011;65265;53.200;6.080;2024-03-02T21:37:32;2.85;;;1.33;;
76433;SDS011;65265;53.200;6.080;2024-03-02T21:42:24;2.97;;;1.40;;
76433;SDS011;65265;53.200;6.080;2024-03-02T21:47:17;3.65;;;2.03;;
76433;SDS011;65265;53.200;6.080;2024-03-02T21:52:11;5.00;;;2.20;;
76433;SDS011;65265;53.200;6.080;2024-03-02T21:57:04;2.33;;;1.05;;
76433;SDS011;65265;53.200;6.080;2024-03-02T22:02:01;3.60;;;1.88;;
76433;SDS011;65265;53.200;6.080;2024-03-02T22:06:54;3.05;;;1.50;;
76433;SDS011;65265;53.200;6.080;2024-03-02T22:11:50;3.58;;;1.35;;
76433;SDS011;65265;53.200;6.080;2024-03-02T22:16:42;3.15;;;1.63;;
76433;SDS011;65265;53.200;6.080;2024-03-02T22:21:35;3.15;;;1.52;;
76433;SDS011;65265;53.200;6.080;2024-03-02T22:26:28;3.40;;;2.33;;
76433;SDS011;65265;53.200;6.080;2024-03-02T22:31:23;3.35;;;1.52;;
76433;SDS011;65265;53.200;6.080;2024-03-02T22:36:16;3.63;;;1.25;;
76433;SDS011;65265;53.200;6.080;2024-03-02T22:41:09;3.97;;;1.70;;
76433;SDS011;65265;53.200;6.080;2024-03-02T22:46:03;3.53;;;1.48;;
76433;SDS011;65265;53.200;6.080;2024-03-02T22:50:57;3.83;;;1.65;;
76433;SDS011;65265;53.200;6.080;2024-03-02T22:55:51;5.30;;;1.70;;
76433;SDS011;65265;53.200;6.080;2024-03-02T23:00:44;2.38;;;1.70;;
76433;SDS011;65265;53.200;6.080;2024-03-02T23:05:38;5.45;;;1.33;;
76433;SDS011;65265;53.200;6.080;2024-03-02T23:10:32;4.13;;;1.75;;
76433;SDS011;65265;53.200;6.080;2024-03-02T23:15:27;3.58;;;1.92;;
76433;SDS011;65265;53.200;6.080;2024-03-02T23:20:22;3.40;;;1.35;;
76433;SDS011;65265;53.200;6.080;2024-03-02T23:25:14;6.78;;;1.58;;
76433;SDS011;65265;53.200;6.080;2024-03-02T23:30:10;4.30;;;1.83;;
76433;SDS011;65265;53.200;6.080;2024-03-02T23:35:03;4.05;;;2.13;;
76433;SDS011;65265;53.200;6.080;2024-03-02T23:39:56;5.35;;;1.90;;
76433;SDS011;65265;53.200;6.080;2024-03-02T23:45:06;3.75;;;2.38;;
76433;SDS011;65265;53.200;6.080;2024-03-02T23:50:04;4.32;;;2.22;;
76433;SDS011;65265;53.200;6.080;2024-03-02T23:54:59;4.57;;;1.80;;
76433;SDS011;65265;53.200;6.080;2024-03-02T23:59:51;5.20;;;2.30;;
